Map

Track Data

SID SEASON NUMBER BASIN SUBBASIN NAME ISO_TIME NATURE LAT LON WMO_WIND WMO_PRES WMO_AGENCY TRACK_TYPE DIST2LAND LANDFALL IFLAG USA_AGENCY USA_ATCF_ID USA_LAT USA_LON USA_RECORD USA_STATUS USA_WIND USA_PRES USA_SSHS USA_R34_NE USA_R34_SE USA_R34_SW USA_R34_NW USA_R50_NE USA_R50_SE USA_R50_SW USA_R50_NW USA_R64_NE USA_R64_SE USA_R64_SW USA_R64_NW USA_POCI USA_ROCI USA_RMW USA_EYE TOKYO_LAT TOKYO_LON TOKYO_GRADE TOKYO_WIND TOKYO_PRES TOKYO_R50_DIR TOKYO_R50_LONG TOKYO_R50_SHORT TOKYO_R30_DIR TOKYO_R30_LONG TOKYO_R30_SHORT TOKYO_LAND CMA_LAT CMA_LON CMA_CAT CMA_WIND CMA_PRES HKO_LAT HKO_LON HKO_CAT HKO_WIND HKO_PRES NEWDELHI_LAT NEWDELHI_LON NEWDELHI_GRADE NEWDELHI_WIND NEWDELHI_PRES NEWDELHI_CI NEWDELHI_DP NEWDELHI_POCI REUNION_LAT REUNION_LON REUNION_TYPE REUNION_WIND REUNION_PRES REUNION_TNUM REUNION_CI REUNION_RMW REUNION_R34_NE REUNION_R34_SE REUNION_R34_SW REUNION_R34_NW REUNION_R50_NE REUNION_R50_SE REUNION_R50_SW REUNION_R50_NW REUNION_R64_NE REUNION_R64_SE REUNION_R64_SW REUNION_R64_NW BOM_LAT BOM_LON BOM_TYPE BOM_WIND BOM_PRES BOM_TNUM BOM_CI BOM_RMW BOM_R34_NE BOM_R34_SE BOM_R34_SW BOM_R34_NW BOM_R50_NE BOM_R50_SE BOM_R50_SW BOM_R50_NW BOM_R64_NE BOM_R64_SE BOM_R64_SW BOM_R64_NW BOM_ROCI BOM_POCI BOM_EYE BOM_POS_METHOD BOM_PRES_METHOD NADI_LAT NADI_LON NADI_CAT NADI_WIND NADI_PRES WELLINGTON_LAT WELLINGTON_LON WELLINGTON_WIND WELLINGTON_PRES DS824_LAT DS824_LON DS824_STAGE DS824_WIND DS824_PRES TD9636_LAT TD9636_LON TD9636_STAGE TD9636_WIND TD9636_PRES TD9635_LAT TD9635_LON TD9635_WIND TD9635_PRES TD9635_ROCI NEUMANN_LAT NEUMANN_LON NEUMANN_CLASS NEUMANN_WIND NEUMANN_PRES MLC_LAT MLC_LON MLC_CLASS MLC_WIND MLC_PRES USA_GUST BOM_GUST BOM_GUST_PER REUNION_GUST REUNION_GUST_PER USA_SEAHGT USA_SEARAD_NE USA_SEARAD_SE USA_SEARAD_SW USA_SEARAD_NW STORM_SPEED STORM_DIR
1990202N10264 1990 49 EP MM ISELLE 1990-07-20 12:00:00 TS 10.0000 -96.1000 25 1008 hurdat_epa main 629 615 O_____________ hurdat_epa EP101990 10.0000 -96.1000 TD 25 1008 -1 19 279
1990202N10264 1990 49 EP MM ISELLE 1990-07-20 15:00:00 TS 10.1433 -97.0298 main 617 603 P_____________ EP101990 10.1433 -97.0298 TD 25 1008 -1 17 280
1990202N10264 1990 49 EP MM ISELLE 1990-07-20 18:00:00 TS 10.3000 -97.8000 25 1008 hurdat_epa main 607 596 O_____________ hurdat_epa EP101990 10.3000 -97.8000 TD 25 1008 -1 13 285
1990202N10264 1990 49 EP MM ISELLE 1990-07-20 21:00:00 TS 10.4846 -98.3101 main 600 589 P_____________ EP101990 10.4846 -98.3101 TD 27 1007 -1 10 294
1990202N10264 1990 49 EP MM ISELLE 1990-07-21 00:00:00 TS 10.7000 -98.7000 30 1007 hurdat_epa main 593 585 O_____________ hurdat_epa EP101990 10.7000 -98.7000 TD 30 1007 -1 10 298
1990202N10264 1990 49 EP MM ISELLE 1990-07-21 03:00:00 TS 10.9350 -99.1650 main 590 567 P_____________ EP101990 10.9350 -99.1650 TD 30 1006 -1 10 299
1990202N10264 1990 49 EP MM ISELLE 1990-07-21 06:00:00 TS 11.2000 -99.6000 30 1006 hurdat_epa main 571 552 O_____________ hurdat_epa EP101990 11.2000 -99.6000 TD 30 1006 -1 10 305
1990202N10264 1990 49 EP MM ISELLE 1990-07-21 09:00:00 TS 11.4924 -99.9651 main 557 536 P_____________ EP101990 11.4924 -99.9651 TD 32 1005 -1 9 311
1990202N10264 1990 49 EP MM ISELLE 1990-07-21 12:00:00 TS 11.8000 -100.300 35 1005 hurdat_epa main 536 517 O_____________ hurdat_epa EP101990 11.8000 -100.300 TS 35 1005 0 9 312
1990202N10264 1990 49 EP MM ISELLE 1990-07-21 15:00:00 TS 12.0925 -100.650 main 521 501 P_____________ EP101990 12.0925 -100.650 TS 40 1005 0 9 311
1990202N10264 1990 49 EP MM ISELLE 1990-07-21 18:00:00 TS 12.4000 -101.000 45 1005 hurdat_epa main 501 479 O_____________ hurdat_epa EP101990 12.4000 -101.000 TS 45 1005 0 10 314
1990202N10264 1990 49 EP MM ISELLE 1990-07-21 21:00:00 TS 12.7575 -101.357 main 473 456 P_____________ EP101990 12.7575 -101.357 TS 47 1002 0 10 316
1990202N10264 1990 49 EP MM ISELLE 1990-07-22 00:00:00 TS 13.1000 -101.700 50 1000 hurdat_epa main 456 444 O_____________ hurdat_epa EP101990 13.1000 -101.700 TS 50 1000 0 9 314
1990202N10264 1990 49 EP MM ISELLE 1990-07-22 03:00:00 TS 13.3724 -102.000 main 444 430 P_____________ EP101990 13.3724 -102.000 TS 52 998 0 8 311
1990202N10264 1990 49 EP MM ISELLE 1990-07-22 06:00:00 TS 13.6000 -102.300 55 996 hurdat_epa main 433 423 O_____________ hurdat_epa EP101990 13.6000 -102.300 TS 55 996 0 8 305
1990202N10264 1990 49 EP MM ISELLE 1990-07-22 09:00:00 TS 13.8075 -102.650 main 427 416 P_____________ EP101990 13.8075 -102.650 TS 57 995 0 8 300
1990202N10264 1990 49 EP MM ISELLE 1990-07-22 12:00:00 TS 14.0000 -103.000 60 994 hurdat_epa main 421 413 O_____________ hurdat_epa EP101990 14.0000 -103.000 TS 60 994 0 8 302
1990202N10264 1990 49 EP MM ISELLE 1990-07-22 15:00:00 TS 14.1999 -103.308 main 419 412 P_____________ EP101990 14.1999 -103.308 TS 62 992 0 7 305
1990202N10264 1990 49 EP MM ISELLE 1990-07-22 18:00:00 TS 14.4000 -103.600 65 990 hurdat_epa main 415 401 O_____________ hurdat_epa EP101990 14.4000 -103.600 HU 65 990 1 7 304
1990202N10264 1990 49 EP MM ISELLE 1990-07-22 21:00:00 TS 14.5925 -103.900 main 405 390 P_____________ EP101990 14.5925 -103.900 HU 67 989 1 7 305
1990202N10264 1990 49 EP MM ISELLE 1990-07-23 00:00:00 TS 14.8000 -104.200 70 988 hurdat_epa main 394 380 O_____________ hurdat_epa EP101990 14.8000 -104.200 HU 70 988 1 7 309
1990202N10264 1990 49 EP MM ISELLE 1990-07-23 03:00:00 TS 15.0499 -104.493 main 383 359 P_____________ EP101990 15.0499 -104.493 HU 72 984 1 8 311
1990202N10264 1990 49 EP MM ISELLE 1990-07-23 06:00:00 TS 15.3000 -104.800 75 980 hurdat_epa main 363 351 O_____________ hurdat_epa EP101990 15.3000 -104.800 HU 75 980 1 8 307
1990202N10264 1990 49 EP MM ISELLE 1990-07-23 09:00:00 TS 15.5150 -105.143 main 356 352 P_____________ EP101990 15.5150 -105.143 HU 77 977 1 8 301
1990202N10264 1990 49 EP MM ISELLE 1990-07-23 12:00:00 TS 15.7000 -105.500 80 975 hurdat_epa main 360 357 O_____________ hurdat_epa EP101990 15.7000 -105.500 HU 80 975 1 8 297
1990202N10264 1990 49 EP MM ISELLE 1990-07-23 15:00:00 TS 15.8574 -105.850 main 370 370 P_____________ EP101990 15.8574 -105.850 HU 85 972 2 7 294
1990202N10264 1990 49 EP MM ISELLE 1990-07-23 18:00:00 TS 16.0000 -106.200 90 970 hurdat_epa main 385 381 O_____________ hurdat_epa EP101990 16.0000 -106.200 HU 90 970 2 7 293
1990202N10264 1990 49 EP MM ISELLE 1990-07-23 21:00:00 TS 16.1499 -106.550 main 395 386 P_____________ EP101990 16.1499 -106.550 HU 92 967 2 7 294
1990202N10264 1990 49 EP MM ISELLE 1990-07-24 00:00:00 TS 16.3000 -106.900 95 965 hurdat_epa main 393 390 O_____________ hurdat_epa EP101990 16.3000 -106.900 HU 95 965 2 7 294
1990202N10264 1990 49 EP MM ISELLE 1990-07-24 03:00:00 TS 16.4424 -107.250 main 410 401 P_____________ EP101990 16.4424 -107.250 HU 95 963 2 7 294
1990202N10264 1990 49 EP MM ISELLE 1990-07-24 06:00:00 TS 16.6000 -107.600 95 962 hurdat_epa main 415 415 O_____________ hurdat_epa EP101990 16.6000 -107.600 HU 95 962 2 8 297
1990202N10264 1990 49 EP MM ISELLE 1990-07-24 09:00:00 TS 16.7849 -107.950 main 430 430 P_____________ EP101990 16.7849 -107.950 HU 97 961 3 8 301
1990202N10264 1990 49 EP MM ISELLE 1990-07-24 12:00:00 TS 17.0000 -108.300 100 960 hurdat_epa main 437 437 O_____________ hurdat_epa EP101990 17.0000 -108.300 HU 100 960 3 8 304
1990202N10264 1990 49 EP MM ISELLE 1990-07-24 15:00:00 TS 17.2349 -108.643 main 446 446 P_____________ EP101990 17.2349 -108.643 HU 100 960 3 8 307
1990202N10264 1990 49 EP MM ISELLE 1990-07-24 18:00:00 TS 17.5000 -109.000 100 960 hurdat_epa main 461 461 O_____________ hurdat_epa EP101990 17.5000 -109.000 HU 100 960 3 9 308
1990202N10264 1990 49 EP MM ISELLE 1990-07-24 21:00:00 TS 17.7924 -109.378 main 478 478 P_____________ EP101990 17.7924 -109.378 HU 100 960 3 10 308
1990202N10264 1990 49 EP MM ISELLE 1990-07-25 00:00:00 TS 18.1000 -109.800 100 960 hurdat_epa main 499 499 O_____________ hurdat_epa EP101990 18.1000 -109.800 HU 100 960 3 11 305
1990202N10264 1990 49 EP MM ISELLE 1990-07-25 03:00:00 TS 18.4075 -110.293 main 504 475 P_____________ EP101990 18.4075 -110.293 HU 100 960 3 11 302
1990202N10264 1990 49 EP MM ISELLE 1990-07-25 06:00:00 TS 18.7000 -110.800 100 960 hurdat_epa main 476 461 O_____________ hurdat_epa EP101990 18.7000 -110.800 HU 100 960 3 11 301
1990202N10264 1990 49 EP MM ISELLE 1990-07-25 09:00:00 TS 18.9573 -111.250 main 456 445 P_____________ EP101990 18.9573 -111.250 HU 102 959 3 10 300
1990202N10264 1990 49 EP MM ISELLE 1990-07-25 12:00:00 TS 19.2000 -111.700 105 958 hurdat_epa main 449 442 O_____________ hurdat_epa EP101990 19.2000 -111.700 HU 105 958 3 10 299
1990202N10264 1990 49 EP MM ISELLE 1990-07-25 15:00:00 TS 19.4500 -112.200 main 452 443 P_____________ EP101990 19.4500 -112.200 HU 105 958 3 11 298
1990202N10264 1990 49 EP MM ISELLE 1990-07-25 18:00:00 TS 19.7000 -112.700 105 958 hurdat_epa main 454 451 O_____________ hurdat_epa EP101990 19.7000 -112.700 HU 105 958 3 10 299
1990202N10264 1990 49 EP MM ISELLE 1990-07-25 21:00:00 TS 19.9423 -113.158 main 471 463 P_____________ EP101990 19.9423 -113.158 HU 105 958 3 10 301
1990202N10264 1990 49 EP MM ISELLE 1990-07-26 00:00:00 TS 20.2000 -113.600 105 958 hurdat_epa main 479 479 O_____________ hurdat_epa EP101990 20.2000 -113.600 HU 105 958 3 10 304
1990202N10264 1990 49 EP MM ISELLE 1990-07-26 03:00:00 TS 20.4923 -114.043 main 492 492 P_____________ EP101990 20.4923 -114.043 HU 102 959 3 10 305
1990202N10264 1990 49 EP MM ISELLE 1990-07-26 06:00:00 TS 20.8000 -114.500 100 960 hurdat_epa main 497 491 O_____________ hurdat_epa EP101990 20.8000 -114.500 HU 100 960 3 11 304
1990202N10264 1990 49 EP MM ISELLE 1990-07-26 09:00:00 TS 21.0999 -114.993 main 500 497 P_____________ EP101990 21.0999 -114.993 HU 100 960 3 11 303
1990202N10264 1990 49 EP MM ISELLE 1990-07-26 12:00:00 TS 21.4000 -115.500 100 960 hurdat_epa main 506 505 O_____________ hurdat_epa EP101990 21.4000 -115.500 HU 100 960 3 11 303
1990202N10264 1990 49 EP MM ISELLE 1990-07-26 15:00:00 TS 21.7073 -116.000 main 520 520 P_____________ EP101990 21.7073 -116.000 HU 97 962 3 11 303
1990202N10264 1990 49 EP MM ISELLE 1990-07-26 18:00:00 TS 22.0000 -116.500 95 965 hurdat_epa main 538 538 O_____________ hurdat_epa EP101990 22.0000 -116.500 HU 95 965 2 11 301
1990202N10264 1990 49 EP MM ISELLE 1990-07-26 21:00:00 TS 22.2649 -117.008 main 563 563 P_____________ EP101990 22.2649 -117.008 HU 95 966 2 11 298
1990202N10264 1990 49 EP MM ISELLE 1990-07-27 00:00:00 TS 22.5000 -117.500 95 967 hurdat_epa main 597 597 O_____________ hurdat_epa EP101990 22.5000 -117.500 HU 95 967 2 10 296
1990202N10264 1990 49 EP MM ISELLE 1990-07-27 03:00:00 TS 22.6999 -117.965 main 619 616 P_____________ EP101990 22.6999 -117.965 HU 92 968 2 9 296
1990202N10264 1990 49 EP MM ISELLE 1990-07-27 06:00:00 TS 22.9000 -118.400 90 970 hurdat_epa main 626 624 O_____________ hurdat_epa EP101990 22.9000 -118.400 HU 90 970 2 9 300
1990202N10264 1990 49 EP MM ISELLE 1990-07-27 09:00:00 TS 23.1499 -118.815 main 636 628 P_____________ EP101990 23.1499 -118.815 HU 87 971 2 9 304
1990202N10264 1990 49 EP MM ISELLE 1990-07-27 12:00:00 TS 23.4000 -119.200 85 973 hurdat_epa main 638 636 O_____________ hurdat_epa EP101990 23.4000 -119.200 HU 85 973 2 8 303
1990202N10264 1990 49 EP MM ISELLE 1990-07-27 15:00:00 TS 23.5999 -119.565 main 649 648 P_____________ EP101990 23.5999 -119.565 HU 82 974 1 8 302
1990202N10264 1990 49 EP MM ISELLE 1990-07-27 18:00:00 TS 23.8000 -119.900 80 975 hurdat_epa main 655 655 O_____________ hurdat_epa EP101990 23.8000 -119.900 HU 80 975 1 7 307
1990202N10264 1990 49 EP MM ISELLE 1990-07-27 21:00:00 TS 24.0424 -120.215 main 664 656 P_____________ EP101990 24.0424 -120.215 HU 80 977 1 7 312
1990202N10264 1990 49 EP MM ISELLE 1990-07-28 00:00:00 TS 24.3000 -120.500 80 980 hurdat_epa main 667 667 O_____________ hurdat_epa EP101990 24.3000 -120.500 HU 80 980 1 7 316
1990202N10264 1990 49 EP MM ISELLE 1990-07-28 03:00:00 TS 24.5575 -120.765 main 674 674 P_____________ EP101990 24.5575 -120.765 HU 75 981 1 7 318
1990202N10264 1990 49 EP MM ISELLE 1990-07-28 06:00:00 TS 24.8000 -121.000 70 982 hurdat_epa main 679 679 O_____________ hurdat_epa EP101990 24.8000 -121.000 HU 70 982 1 6 318
1990202N10264 1990 49 EP MM ISELLE 1990-07-28 09:00:00 TS 25.0150 -121.223 main 686 686 P_____________ EP101990 25.0150 -121.223 HU 67 983 1 5 318
1990202N10264 1990 49 EP MM ISELLE 1990-07-28 12:00:00 TS 25.2000 -121.400 65 985 hurdat_epa main 694 690 O_____________ hurdat_epa EP101990 25.2000 -121.400 HU 65 985 1 5 323
1990202N10264 1990 49 EP MM ISELLE 1990-07-28 15:00:00 TS 25.3800 -121.530 main 695 695 P_____________ EP101990 25.3800 -121.530 HU 60 986 0 4 329
1990202N10264 1990 49 EP MM ISELLE 1990-07-28 18:00:00 TS 25.5000 -121.600 55 988 hurdat_epa main 700 700 O_____________ hurdat_epa EP101990 25.5000 -121.600 TS 55 988 0 2 332
1990202N10264 1990 49 EP MM ISELLE 1990-07-28 21:00:00 TS 25.5150 -121.608 main 700 700 P_____________ EP101990 25.5150 -121.608 TS 55 991 0 0 0
1990202N10264 1990 49 EP MM ISELLE 1990-07-29 00:00:00 TS 25.5000 -121.600 55 995 hurdat_epa main 700 700 O_____________ hurdat_epa EP101990 25.5000 -121.600 TS 55 995 0 1 309
1990202N10264 1990 49 EP MM ISELLE 1990-07-29 03:00:00 TS 25.5500 -121.650 main 695 695 P_____________ EP101990 25.5500 -121.650 TS 50 996 0 1 320
1990202N10264 1990 49 EP MM ISELLE 1990-07-29 06:00:00 TS 25.6000 -121.700 45 998 hurdat_epa main 705 705 O_____________ hurdat_epa EP101990 25.6000 -121.700 TS 45 998 0 1 317
1990202N10264 1990 49 EP MM ISELLE 1990-07-29 09:00:00 TS 25.6075 -121.708 main 705 705 P_____________ EP101990 25.6075 -121.708 TS 42 999 0 0 0
1990202N10264 1990 49 EP MM ISELLE 1990-07-29 12:00:00 TS 25.6000 -121.700 40 1000 hurdat_epa main 705 705 O_____________ hurdat_epa EP101990 25.6000 -121.700 TS 40 1000 0 0 0
1990202N10264 1990 49 EP MM ISELLE 1990-07-29 15:00:00 TS 25.6000 -121.693 main 705 705 P_____________ EP101990 25.6000 -121.693 TS 37 1001 0 0 0
1990202N10264 1990 49 EP MM ISELLE 1990-07-29 18:00:00 TS 25.6000 -121.700 35 1003 hurdat_epa main 705 705 O_____________ hurdat_epa EP101990 25.6000 -121.700 TS 35 1003 0 1 278
1990202N10264 1990 49 EP MM ISELLE 1990-07-29 21:00:00 TS 25.6075 -121.750 main 705 714 P_____________ EP101990 25.6075 -121.750 TS 32 1004 -1 1 270
1990202N10264 1990 49 EP MM ISELLE 1990-07-30 00:00:00 TS 25.6000 -121.800 30 1005 hurdat_epa main 714 714 O_____________ hurdat_epa EP101990 25.6000 -121.800 TD 30 1005 -1 1 223
1990202N10264 1990 49 EP MM ISELLE 1990-07-30 03:00:00 TS 25.5575 -121.785 main 714 714 P_____________ EP101990 25.5575 -121.785 TD 30 1006 -1 1 0
1990202N10264 1990 49 EP MM ISELLE 1990-07-30 06:00:00 TS 25.5000 -121.800 30 1008 hurdat_epa main 718 718 O_____________ hurdat_epa EP101990 25.5000 -121.800 TD 30 1008 -1 2 228
1990202N10264 1990 49 EP MM ISELLE 1990-07-30 09:00:00 TS 25.4476 -121.918 main 732 732 P_____________ EP101990 25.4476 -121.918 TD 27 1009 -1 3 250
1990202N10264 1990 49 EP MM ISELLE 1990-07-30 12:00:00 TS 25.4000 -122.100 25 1010 hurdat_epa main 750 O_____________ hurdat_epa EP101990 25.4000 -122.100 TD 25 1010 -1 3 254

About IBTrACS Database

This database is a web-friendly format of International Best Track Archive for Climate Stewardship (IBTrACS), a global best track data archive curated by NOAA dating back to 1842.

Updated: 2021-10-25